sensor_id;sensor_type;location;lat;lon;timestamp;P1;durP1;ratioP1;P2;durP2;ratioP2
49548;SDS011;35450;44.518;7.466;2023-07-16T00:02:06;14.93;;;8.75;;
49548;SDS011;35450;44.518;7.466;2023-07-16T00:05:10;17.30;;;10.75;;
49548;SDS011;35450;44.518;7.466;2023-07-16T00:08:14;17.65;;;10.68;;
49548;SDS011;35450;44.518;7.466;2023-07-16T00:11:18;19.52;;;11.30;;
49548;SDS011;35450;44.518;7.466;2023-07-16T00:14:21;19.92;;;11.13;;
49548;SDS011;35450;44.518;7.466;2023-07-16T00:17:25;19.08;;;11.45;;
49548;SDS011;35450;44.518;7.466;2023-07-16T00:20:29;19.02;;;10.80;;
49548;SDS011;35450;44.518;7.466;2023-07-16T00:23:34;15.63;;;10.68;;
49548;SDS011;35450;44.518;7.466;2023-07-16T00:26:39;15.35;;;10.45;;
49548;SDS011;35450;44.518;7.466;2023-07-16T00:29:43;14.55;;;9.70;;
49548;SDS011;35450;44.518;7.466;2023-07-16T00:32:47;14.90;;;11.15;;
49548;SDS011;35450;44.518;7.466;2023-07-16T00:35:51;12.63;;;9.23;;
49548;SDS011;35450;44.518;7.466;2023-07-16T00:38:55;14.60;;;9.55;;
49548;SDS011;35450;44.518;7.466;2023-07-16T00:41:58;14.98;;;10.07;;
49548;SDS011;35450;44.518;7.466;2023-07-16T00:45:02;17.63;;;10.77;;
49548;SDS011;35450;44.518;7.466;2023-07-16T00:48:12;19.52;;;10.57;;
49548;SDS011;35450;44.518;7.466;2023-07-16T00:51:17;13.70;;;9.50;;
49548;SDS011;35450;44.518;7.466;2023-07-16T00:54:22;18.73;;;10.82;;
49548;SDS011;35450;44.518;7.466;2023-07-16T00:57:27;14.70;;;10.40;;
49548;SDS011;35450;44.518;7.466;2023-07-16T01:00:32;12.50;;;8.77;;
49548;SDS011;35450;44.518;7.466;2023-07-16T01:03:37;16.80;;;9.52;;
49548;SDS011;35450;44.518;7.466;2023-07-16T01:06:47;12.55;;;8.63;;
49548;SDS011;35450;44.518;7.466;2023-07-16T01:09:54;16.40;;;10.13;;
49548;SDS011;35450;44.518;7.466;2023-07-16T01:12:59;13.23;;;9.60;;
49548;SDS011;35450;44.518;7.466;2023-07-16T01:16:03;21.27;;;10.00;;
49548;SDS011;35450;44.518;7.466;2023-07-16T01:19:08;16.92;;;10.15;;
49548;SDS011;35450;44.518;7.466;2023-07-16T01:25:36;18.80;;;10.32;;
49548;SDS011;35450;44.518;7.466;2023-07-16T01:32:20;23.90;;;10.90;;
49548;SDS011;35450;44.518;7.466;2023-07-16T01:35:25;12.20;;;9.07;;
49548;SDS011;35450;44.518;7.466;2023-07-16T01:38:30;13.23;;;9.57;;
49548;SDS011;35450;44.518;7.466;2023-07-16T01:41:34;14.40;;;9.60;;
49548;SDS011;35450;44.518;7.466;2023-07-16T01:44:38;13.05;;;8.48;;
49548;SDS011;35450;44.518;7.466;2023-07-16T01:51:19;21.42;;;10.45;;
49548;SDS011;35450;44.518;7.466;2023-07-16T01:54:24;15.70;;;10.45;;
49548;SDS011;35450;44.518;7.466;2023-07-16T01:57:27;13.07;;;9.57;;
49548;SDS011;35450;44.518;7.466;2023-07-16T02:00:31;17.48;;;9.90;;
49548;SDS011;35450;44.518;7.466;2023-07-16T02:03:35;13.95;;;9.45;;
49548;SDS011;35450;44.518;7.466;2023-07-16T02:06:42;12.68;;;10.02;;
49548;SDS011;35450;44.518;7.466;2023-07-16T02:09:46;15.60;;;9.48;;
49548;SDS011;35450;44.518;7.466;2023-07-16T02:12:50;13.88;;;9.18;;
49548;SDS011;35450;44.518;7.466;2023-07-16T02:15:54;17.48;;;10.23;;
49548;SDS011;35450;44.518;7.466;2023-07-16T02:18:58;28.08;;;12.23;;
49548;SDS011;35450;44.518;7.466;2023-07-16T02:22:02;18.40;;;11.63;;
49548;SDS011;35450;44.518;7.466;2023-07-16T02:25:07;20.63;;;12.70;;
49548;SDS011;35450;44.518;7.466;2023-07-16T02:28:11;20.98;;;12.07;;
49548;SDS011;35450;44.518;7.466;2023-07-16T02:31:15;14.00;;;10.48;;
49548;SDS011;35450;44.518;7.466;2023-07-16T02:34:19;14.20;;;10.32;;
49548;SDS011;35450;44.518;7.466;2023-07-16T02:37:23;22.15;;;11.32;;
49548;SDS011;35450;44.518;7.466;2023-07-16T02:40:27;18.55;;;10.45;;
49548;SDS011;35450;44.518;7.466;2023-07-16T02:43:31;11.52;;;9.25;;
49548;SDS011;35450;44.518;7.466;2023-07-16T02:46:35;15.45;;;10.32;;
49548;SDS011;35450;44.518;7.466;2023-07-16T02:49:39;17.40;;;9.40;;
49548;SDS011;35450;44.518;7.466;2023-07-16T02:52:43;20.42;;;10.05;;
49548;SDS011;35450;44.518;7.466;2023-07-16T02:55:47;13.65;;;9.43;;
49548;SDS011;35450;44.518;7.466;2023-07-16T02:58:51;14.10;;;9.65;;
49548;SDS011;35450;44.518;7.466;2023-07-16T03:01:54;16.13;;;9.50;;
49548;SDS011;35450;44.518;7.466;2023-07-16T03:04:58;13.38;;;8.77;;
49548;SDS011;35450;44.518;7.466;2023-07-16T03:08:02;17.60;;;9.73;;
49548;SDS011;35450;44.518;7.466;2023-07-16T03:11:07;14.75;;;10.18;;
49548;SDS011;35450;44.518;7.466;2023-07-16T03:14:11;15.50;;;9.48;;
49548;SDS011;35450;44.518;7.466;2023-07-16T03:17:16;16.38;;;8.98;;
49548;SDS011;35450;44.518;7.466;2023-07-16T03:20:20;12.77;;;7.97;;
49548;SDS011;35450;44.518;7.466;2023-07-16T03:23:24;9.57;;;7.05;;
49548;SDS011;35450;44.518;7.466;2023-07-16T03:26:28;13.13;;;8.43;;
49548;SDS011;35450;44.518;7.466;2023-07-16T03:29:32;16.52;;;8.40;;
49548;SDS011;35450;44.518;7.466;2023-07-16T03:32:37;14.10;;;8.40;;
49548;SDS011;35450;44.518;7.466;2023-07-16T03:35:44;15.60;;;9.88;;
49548;SDS011;35450;44.518;7.466;2023-07-16T03:38:49;15.48;;;9.77;;
49548;SDS011;35450;44.518;7.466;2023-07-16T03:41:53;13.98;;;10.30;;
49548;SDS011;35450;44.518;7.466;2023-07-16T03:44:56;16.17;;;10.98;;
49548;SDS011;35450;44.518;7.466;2023-07-16T03:48:00;15.02;;;9.20;;
49548;SDS011;35450;44.518;7.466;2023-07-16T03:51:04;18.77;;;10.48;;
49548;SDS011;35450;44.518;7.466;2023-07-16T03:54:08;14.77;;;10.13;;
49548;SDS011;35450;44.518;7.466;2023-07-16T03:57:12;12.25;;;9.45;;
49548;SDS011;35450;44.518;7.466;2023-07-16T04:00:16;15.52;;;10.57;;
49548;SDS011;35450;44.518;7.466;2023-07-16T04:03:25;19.60;;;10.32;;
49548;SDS011;35450;44.518;7.466;2023-07-16T04:06:29;15.98;;;9.45;;
49548;SDS011;35450;44.518;7.466;2023-07-16T04:09:36;18.77;;;9.70;;
49548;SDS011;35450;44.518;7.466;2023-07-16T04:12:41;13.45;;;10.05;;
49548;SDS011;35450;44.518;7.466;2023-07-16T04:15:45;17.88;;;10.82;;
49548;SDS011;35450;44.518;7.466;2023-07-16T04:18:49;16.25;;;10.65;;
49548;SDS011;35450;44.518;7.466;2023-07-16T04:21:53;24.52;;;10.85;;
49548;SDS011;35450;44.518;7.466;2023-07-16T04:24:57;19.02;;;10.27;;
49548;SDS011;35450;44.518;7.466;2023-07-16T04:28:01;20.85;;;10.40;;
49548;SDS011;35450;44.518;7.466;2023-07-16T04:31:07;23.60;;;11.32;;
49548;SDS011;35450;44.518;7.466;2023-07-16T04:34:11;25.52;;;11.07;;
49548;SDS011;35450;44.518;7.466;2023-07-16T04:37:15;17.95;;;11.52;;
49548;SDS011;35450;44.518;7.466;2023-07-16T04:40:19;16.55;;;10.40;;
49548;SDS011;35450;44.518;7.466;2023-07-16T04:43:23;18.83;;;10.20;;
49548;SDS011;35450;44.518;7.466;2023-07-16T04:46:27;19.60;;;11.23;;
49548;SDS011;35450;44.518;7.466;2023-07-16T04:49:33;13.93;;;10.93;;
49548;SDS011;35450;44.518;7.466;2023-07-16T04:52:37;16.95;;;10.50;;
49548;SDS011;35450;44.518;7.466;2023-07-16T04:55:42;14.45;;;10.38;;
49548;SDS011;35450;44.518;7.466;2023-07-16T04:58:46;14.07;;;10.02;;
49548;SDS011;35450;44.518;7.466;2023-07-16T05:01:50;14.05;;;10.75;;
49548;SDS011;35450;44.518;7.466;2023-07-16T05:04:53;20.42;;;11.95;;
49548;SDS011;35450;44.518;7.466;2023-07-16T05:07:57;22.13;;;11.63;;
49548;SDS011;35450;44.518;7.466;2023-07-16T05:11:02;15.57;;;11.15;;
49548;SDS011;35450;44.518;7.466;2023-07-16T05:14:06;16.88;;;10.75;;
49548;SDS011;35450;44.518;7.466;2023-07-16T05:17:10;18.42;;;11.05;;
49548;SDS011;35450;44.518;7.466;2023-07-16T05:20:13;20.42;;;10.90;;
49548;SDS011;35450;44.518;7.466;2023-07-16T05:23:17;27.73;;;11.68;;
49548;SDS011;35450;44.518;7.466;2023-07-16T05:26:21;18.45;;;10.88;;
49548;SDS011;35450;44.518;7.466;2023-07-16T05:29:25;17.02;;;11.63;;
49548;SDS011;35450;44.518;7.466;2023-07-16T05:32:29;16.20;;;10.88;;
49548;SDS011;35450;44.518;7.466;2023-07-16T05:35:33;25.27;;;11.93;;
49548;SDS011;35450;44.518;7.466;2023-07-16T05:38:37;17.70;;;10.15;;
49548;SDS011;35450;44.518;7.466;2023-07-16T05:41:42;17.10;;;9.63;;
49548;SDS011;35450;44.518;7.466;2023-07-16T05:44:49;14.77;;;9.38;;
49548;SDS011;35450;44.518;7.466;2023-07-16T05:47:53;15.95;;;9.13;;
49548;SDS011;35450;44.518;7.466;2023-07-16T05:50:57;17.10;;;8.75;;
49548;SDS011;35450;44.518;7.466;2023-07-16T05:54:01;11.40;;;7.57;;
49548;SDS011;35450;44.518;7.466;2023-07-16T05:57:05;17.77;;;9.75;;
49548;SDS011;35450;44.518;7.466;2023-07-16T06:00:10;23.50;;;13.15;;
49548;SDS011;35450;44.518;7.466;2023-07-16T06:03:19;19.25;;;12.68;;
49548;SDS011;35450;44.518;7.466;2023-07-16T06:06:23;19.63;;;11.15;;
49548;SDS011;35450;44.518;7.466;2023-07-16T06:09:27;17.83;;;9.85;;
49548;SDS011;35450;44.518;7.466;2023-07-16T06:12:31;15.88;;;8.98;;
49548;SDS011;35450;44.518;7.466;2023-07-16T06:15:36;15.65;;;8.27;;
49548;SDS011;35450;44.518;7.466;2023-07-16T06:18:40;13.25;;;8.32;;
49548;SDS011;35450;44.518;7.466;2023-07-16T06:21:44;12.57;;;7.90;;
49548;SDS011;35450;44.518;7.466;2023-07-16T06:24:48;12.80;;;9.07;;
49548;SDS011;35450;44.518;7.466;2023-07-16T06:27:52;12.57;;;7.65;;
49548;SDS011;35450;44.518;7.466;2023-07-16T06:30:56;11.57;;;8.20;;
49548;SDS011;35450;44.518;7.466;2023-07-16T06:34:00;8.75;;;7.05;;
49548;SDS011;35450;44.518;7.466;2023-07-16T06:37:04;12.80;;;8.70;;
49548;SDS011;35450;44.518;7.466;2023-07-16T06:40:09;15.48;;;8.85;;
49548;SDS011;35450;44.518;7.466;2023-07-16T06:43:13;11.88;;;9.10;;
49548;SDS011;35450;44.518;7.466;2023-07-16T06:46:18;17.58;;;9.43;;
49548;SDS011;35450;44.518;7.466;2023-07-16T06:49:22;10.52;;;7.53;;
49548;SDS011;35450;44.518;7.466;2023-07-16T06:52:27;12.65;;;8.88;;
49548;SDS011;35450;44.518;7.466;2023-07-16T06:55:31;10.98;;;7.75;;
49548;SDS011;35450;44.518;7.466;2023-07-16T06:58:34;23.23;;;8.65;;
49548;SDS011;35450;44.518;7.466;2023-07-16T07:01:39;13.63;;;8.00;;
49548;SDS011;35450;44.518;7.466;2023-07-16T07:04:43;15.18;;;8.50;;
49548;SDS011;35450;44.518;7.466;2023-07-16T07:07:47;12.00;;;7.35;;
49548;SDS011;35450;44.518;7.466;2023-07-16T07:10:51;14.55;;;7.63;;
49548;SDS011;35450;44.518;7.466;2023-07-16T07:13:55;12.00;;;8.40;;
49548;SDS011;35450;44.518;7.466;2023-07-16T07:17:00;15.93;;;9.85;;
49548;SDS011;35450;44.518;7.466;2023-07-16T07:20:04;20.17;;;11.23;;
49548;SDS011;35450;44.518;7.466;2023-07-16T07:23:10;16.60;;;10.45;;
49548;SDS011;35450;44.518;7.466;2023-07-16T07:26:14;26.38;;;11.55;;
49548;SDS011;35450;44.518;7.466;2023-07-16T07:29:18;17.17;;;8.57;;
49548;SDS011;35450;44.518;7.466;2023-07-16T07:32:22;13.75;;;7.65;;
49548;SDS011;35450;44.518;7.466;2023-07-16T07:35:25;12.30;;;7.40;;
49548;SDS011;35450;44.518;7.466;2023-07-16T07:38:29;13.35;;;7.40;;
49548;SDS011;35450;44.518;7.466;2023-07-16T07:41:33;14.95;;;7.75;;
49548;SDS011;35450;44.518;7.466;2023-07-16T07:44:37;15.70;;;8.63;;
49548;SDS011;35450;44.518;7.466;2023-07-16T07:47:41;9.73;;;7.03;;
49548;SDS011;35450;44.518;7.466;2023-07-16T07:50:46;16.77;;;7.22;;
49548;SDS011;35450;44.518;7.466;2023-07-16T07:53:50;15.30;;;7.05;;
49548;SDS011;35450;44.518;7.466;2023-07-16T07:56:54;18.27;;;8.77;;
49548;SDS011;35450;44.518;7.466;2023-07-16T07:59:58;12.32;;;7.15;;
49548;SDS011;35450;44.518;7.466;2023-07-16T08:03:03;14.30;;;7.45;;
49548;SDS011;35450;44.518;7.466;2023-07-16T08:06:06;12.35;;;7.85;;
49548;SDS011;35450;44.518;7.466;2023-07-16T08:09:11;14.75;;;7.20;;
49548;SDS011;35450;44.518;7.466;2023-07-16T08:12:15;12.85;;;7.63;;
49548;SDS011;35450;44.518;7.466;2023-07-16T08:15:19;16.33;;;7.63;;
49548;SDS011;35450;44.518;7.466;2023-07-16T08:18:23;13.77;;;7.90;;
49548;SDS011;35450;44.518;7.466;2023-07-16T08:21:27;14.10;;;7.00;;
49548;SDS011;35450;44.518;7.466;2023-07-16T08:24:30;14.68;;;6.32;;
49548;SDS011;35450;44.518;7.466;2023-07-16T08:27:34;15.10;;;6.57;;
49548;SDS011;35450;44.518;7.466;2023-07-16T08:30:38;20.60;;;7.03;;
49548;SDS011;35450;44.518;7.466;2023-07-16T08:33:42;11.15;;;6.70;;
49548;SDS011;35450;44.518;7.466;2023-07-16T08:36:46;14.77;;;5.90;;
49548;SDS011;35450;44.518;7.466;2023-07-16T08:39:51;12.82;;;6.22;;
49548;SDS011;35450;44.518;7.466;2023-07-16T08:42:59;13.85;;;6.22;;
49548;SDS011;35450;44.518;7.466;2023-07-16T08:46:03;14.82;;;7.03;;
49548;SDS011;35450;44.518;7.466;2023-07-16T08:49:07;13.68;;;7.30;;
49548;SDS011;35450;44.518;7.466;2023-07-16T08:52:12;10.80;;;7.40;;
49548;SDS011;35450;44.518;7.466;2023-07-16T08:55:16;13.30;;;7.53;;
49548;SDS011;35450;44.518;7.466;2023-07-16T08:58:22;23.25;;;7.10;;
49548;SDS011;35450;44.518;7.466;2023-07-16T09:01:27;14.10;;;6.65;;
49548;SDS011;35450;44.518;7.466;2023-07-16T09:04:32;10.57;;;6.63;;
49548;SDS011;35450;44.518;7.466;2023-07-16T09:07:36;9.65;;;6.20;;
49548;SDS011;35450;44.518;7.466;2023-07-16T09:10:41;16.63;;;6.40;;
49548;SDS011;35450;44.518;7.466;2023-07-16T09:13:45;16.55;;;6.30;;
49548;SDS011;35450;44.518;7.466;2023-07-16T09:16:50;13.60;;;7.18;;
49548;SDS011;35450;44.518;7.466;2023-07-16T09:19:55;11.93;;;6.80;;
49548;SDS011;35450;44.518;7.466;2023-07-16T09:22:59;18.60;;;7.03;;
49548;SDS011;35450;44.518;7.466;2023-07-16T09:26:03;14.35;;;5.82;;
49548;SDS011;35450;44.518;7.466;2023-07-16T09:29:07;15.55;;;6.03;;
49548;SDS011;35450;44.518;7.466;2023-07-16T09:32:11;14.63;;;7.20;;
49548;SDS011;35450;44.518;7.466;2023-07-16T09:35:16;13.27;;;5.72;;
49548;SDS011;35450;44.518;7.466;2023-07-16T09:38:20;11.00;;;6.00;;
49548;SDS011;35450;44.518;7.466;2023-07-16T09:41:27;11.30;;;5.60;;
49548;SDS011;35450;44.518;7.466;2023-07-16T09:44:32;15.05;;;6.13;;
49548;SDS011;35450;44.518;7.466;2023-07-16T09:47:37;12.98;;;6.65;;
49548;SDS011;35450;44.518;7.466;2023-07-16T09:50:43;10.77;;;6.00;;
49548;SDS011;35450;44.518;7.466;2023-07-16T09:53:53;13.60;;;6.22;;
49548;SDS011;35450;44.518;7.466;2023-07-16T09:56:59;11.45;;;6.95;;
49548;SDS011;35450;44.518;7.466;2023-07-16T10:00:06;15.20;;;6.78;;
49548;SDS011;35450;44.518;7.466;2023-07-16T10:03:19;12.27;;;7.28;;
49548;SDS011;35450;44.518;7.466;2023-07-16T10:06:24;17.15;;;6.65;;
49548;SDS011;35450;44.518;7.466;2023-07-16T10:09:41;13.93;;;6.93;;
49548;SDS011;35450;44.518;7.466;2023-07-16T10:12:57;14.75;;;7.10;;
49548;SDS011;35450;44.518;7.466;2023-07-16T10:16:05;14.65;;;6.65;;
49548;SDS011;35450;44.518;7.466;2023-07-16T10:19:12;17.25;;;6.70;;
49548;SDS011;35450;44.518;7.466;2023-07-16T10:22:17;12.75;;;6.95;;
49548;SDS011;35450;44.518;7.466;2023-07-16T10:25:23;11.65;;;6.32;;
49548;SDS011;35450;44.518;7.466;2023-07-16T10:28:30;13.55;;;6.88;;
49548;SDS011;35450;44.518;7.466;2023-07-16T10:31:34;11.10;;;6.90;;
49548;SDS011;35450;44.518;7.466;2023-07-16T10:34:39;14.00;;;7.38;;
49548;SDS011;35450;44.518;7.466;2023-07-16T10:37:43;14.80;;;6.32;;
49548;SDS011;35450;44.518;7.466;2023-07-16T10:40:47;16.90;;;6.28;;
49548;SDS011;35450;44.518;7.466;2023-07-16T10:43:51;12.82;;;6.07;;
49548;SDS011;35450;44.518;7.466;2023-07-16T10:46:55;12.05;;;6.15;;
49548;SDS011;35450;44.518;7.466;2023-07-16T10:49:59;13.50;;;5.75;;
49548;SDS011;35450;44.518;7.466;2023-07-16T10:53:06;11.77;;;6.25;;
49548;SDS011;35450;44.518;7.466;2023-07-16T10:56:10;16.40;;;5.97;;
49548;SDS011;35450;44.518;7.466;2023-07-16T10:59:15;16.45;;;6.25;;
49548;SDS011;35450;44.518;7.466;2023-07-16T11:02:20;11.50;;;6.05;;
49548;SDS011;35450;44.518;7.466;2023-07-16T11:05:25;13.38;;;6.07;;
49548;SDS011;35450;44.518;7.466;2023-07-16T11:08:29;12.55;;;6.63;;
49548;SDS011;35450;44.518;7.466;2023-07-16T11:11:32;13.30;;;6.80;;
49548;SDS011;35450;44.518;7.466;2023-07-16T11:14:36;12.25;;;5.85;;
49548;SDS011;35450;44.518;7.466;2023-07-16T11:17:42;18.70;;;9.52;;
49548;SDS011;35450;44.518;7.466;2023-07-16T11:20:46;18.48;;;7.60;;
49548;SDS011;35450;44.518;7.466;2023-07-16T11:23:55;12.70;;;5.68;;
49548;SDS011;35450;44.518;7.466;2023-07-16T11:26:59;12.57;;;6.20;;
49548;SDS011;35450;44.518;7.466;2023-07-16T11:30:03;11.27;;;6.55;;
49548;SDS011;35450;44.518;7.466;2023-07-16T11:33:11;15.15;;;6.18;;
49548;SDS011;35450;44.518;7.466;2023-07-16T11:36:16;15.95;;;6.40;;
49548;SDS011;35450;44.518;7.466;2023-07-16T11:39:20;15.25;;;6.53;;
49548;SDS011;35450;44.518;7.466;2023-07-16T11:42:28;12.63;;;5.40;;
49548;SDS011;35450;44.518;7.466;2023-07-16T11:45:33;14.13;;;6.40;;
49548;SDS011;35450;44.518;7.466;2023-07-16T11:48:37;12.98;;;6.07;;
49548;SDS011;35450;44.518;7.466;2023-07-16T11:51:41;12.88;;;5.55;;
49548;SDS011;35450;44.518;7.466;2023-07-16T11:54:46;11.13;;;6.43;;
49548;SDS011;35450;44.518;7.466;2023-07-16T11:57:51;11.80;;;6.30;;
49548;SDS011;35450;44.518;7.466;2023-07-16T12:00:55;13.13;;;6.00;;
49548;SDS011;35450;44.518;7.466;2023-07-16T12:04:00;13.63;;;6.15;;
49548;SDS011;35450;44.518;7.466;2023-07-16T12:07:04;16.00;;;6.50;;
49548;SDS011;35450;44.518;7.466;2023-07-16T12:10:08;13.02;;;6.20;;
49548;SDS011;35450;44.518;7.466;2023-07-16T12:13:12;13.32;;;6.05;;
49548;SDS011;35450;44.518;7.466;2023-07-16T12:16:16;11.60;;;5.97;;
49548;SDS011;35450;44.518;7.466;2023-07-16T12:19:20;13.77;;;6.22;;
49548;SDS011;35450;44.518;7.466;2023-07-16T12:22:24;17.75;;;7.28;;
49548;SDS011;35450;44.518;7.466;2023-07-16T12:25:28;13.90;;;6.13;;
49548;SDS011;35450;44.518;7.466;2023-07-16T12:28:33;8.57;;;5.75;;
49548;SDS011;35450;44.518;7.466;2023-07-16T12:31:37;11.40;;;6.32;;
49548;SDS011;35450;44.518;7.466;2023-07-16T12:34:41;11.68;;;6.15;;
49548;SDS011;35450;44.518;7.466;2023-07-16T12:37:44;14.68;;;6.75;;
49548;SDS011;35450;44.518;7.466;2023-07-16T12:40:48;9.68;;;6.18;;
49548;SDS011;35450;44.518;7.466;2023-07-16T12:43:53;12.57;;;5.97;;
49548;SDS011;35450;44.518;7.466;2023-07-16T12:46:57;16.80;;;6.50;;
49548;SDS011;35450;44.518;7.466;2023-07-16T12:50:01;13.85;;;6.55;;
49548;SDS011;35450;44.518;7.466;2023-07-16T12:53:05;13.70;;;5.88;;
49548;SDS011;35450;44.518;7.466;2023-07-16T12:56:09;14.35;;;6.57;;
49548;SDS011;35450;44.518;7.466;2023-07-16T12:59:13;11.43;;;6.32;;
49548;SDS011;35450;44.518;7.466;2023-07-16T13:02:17;18.25;;;7.13;;
49548;SDS011;35450;44.518;7.466;2023-07-16T13:05:21;18.42;;;6.72;;
49548;SDS011;35450;44.518;7.466;2023-07-16T13:08:25;11.98;;;7.15;;
49548;SDS011;35450;44.518;7.466;2023-07-16T13:11:29;12.55;;;6.22;;
49548;SDS011;35450;44.518;7.466;2023-07-16T13:14:34;13.02;;;6.78;;
49548;SDS011;35450;44.518;7.466;2023-07-16T13:17:38;12.15;;;6.22;;
49548;SDS011;35450;44.518;7.466;2023-07-16T13:20:41;12.88;;;7.07;;
49548;SDS011;35450;44.518;7.466;2023-07-16T13:23:45;14.38;;;6.72;;
49548;SDS011;35450;44.518;7.466;2023-07-16T13:26:50;17.75;;;6.13;;
49548;SDS011;35450;44.518;7.466;2023-07-16T13:29:54;12.07;;;6.40;;
49548;SDS011;35450;44.518;7.466;2023-07-16T13:32:57;12.73;;;5.82;;
49548;SDS011;35450;44.518;7.466;2023-07-16T13:36:02;11.88;;;6.68;;
49548;SDS011;35450;44.518;7.466;2023-07-16T13:39:07;8.63;;;5.82;;
49548;SDS011;35450;44.518;7.466;2023-07-16T13:42:12;12.85;;;5.57;;
49548;SDS011;35450;44.518;7.466;2023-07-16T13:45:16;14.68;;;6.82;;
49548;SDS011;35450;44.518;7.466;2023-07-16T13:48:20;13.48;;;6.32;;
49548;SDS011;35450;44.518;7.466;2023-07-16T13:51:24;11.43;;;6.18;;
49548;SDS011;35450;44.518;7.466;2023-07-16T13:54:29;12.57;;;6.43;;
49548;SDS011;35450;44.518;7.466;2023-07-16T13:57:33;10.48;;;5.78;;
49548;SDS011;35450;44.518;7.466;2023-07-16T14:00:37;11.40;;;5.72;;
49548;SDS011;35450;44.518;7.466;2023-07-16T14:03:41;15.30;;;5.70;;
49548;SDS011;35450;44.518;7.466;2023-07-16T14:06:45;10.48;;;6.10;;
49548;SDS011;35450;44.518;7.466;2023-07-16T14:09:49;18.42;;;6.50;;
49548;SDS011;35450;44.518;7.466;2023-07-16T14:12:53;15.18;;;6.13;;
49548;SDS011;35450;44.518;7.466;2023-07-16T14:15:57;10.90;;;5.47;;
49548;SDS011;35450;44.518;7.466;2023-07-16T14:19:01;13.18;;;6.70;;
49548;SDS011;35450;44.518;7.466;2023-07-16T14:22:06;14.27;;;6.32;;
49548;SDS011;35450;44.518;7.466;2023-07-16T14:25:10;11.73;;;6.03;;
49548;SDS011;35450;44.518;7.466;2023-07-16T14:28:14;11.68;;;6.50;;
49548;SDS011;35450;44.518;7.466;2023-07-16T14:31:18;12.40;;;6.80;;
49548;SDS011;35450;44.518;7.466;2023-07-16T14:34:22;15.23;;;6.65;;
49548;SDS011;35450;44.518;7.466;2023-07-16T14:37:26;11.20;;;6.13;;
49548;SDS011;35450;44.518;7.466;2023-07-16T14:40:30;16.45;;;6.50;;
49548;SDS011;35450;44.518;7.466;2023-07-16T14:43:35;11.30;;;6.45;;
49548;SDS011;35450;44.518;7.466;2023-07-16T14:46:39;12.13;;;6.38;;
49548;SDS011;35450;44.518;7.466;2023-07-16T14:49:43;14.98;;;6.70;;
49548;SDS011;35450;44.518;7.466;2023-07-16T14:52:47;10.02;;;6.13;;
49548;SDS011;35450;44.518;7.466;2023-07-16T14:55:51;12.40;;;6.35;;
49548;SDS011;35450;44.518;7.466;2023-07-16T14:58:56;16.80;;;6.72;;
49548;SDS011;35450;44.518;7.466;2023-07-16T15:02:00;16.27;;;7.07;;
49548;SDS011;35450;44.518;7.466;2023-07-16T15:05:04;12.05;;;6.20;;
49548;SDS011;35450;44.518;7.466;2023-07-16T15:08:08;17.45;;;7.10;;
49548;SDS011;35450;44.518;7.466;2023-07-16T15:11:12;10.80;;;5.63;;
49548;SDS011;35450;44.518;7.466;2023-07-16T15:14:16;11.65;;;5.88;;
49548;SDS011;35450;44.518;7.466;2023-07-16T15:17:20;13.85;;;6.18;;
49548;SDS011;35450;44.518;7.466;2023-07-16T15:20:25;10.60;;;6.05;;
49548;SDS011;35450;44.518;7.466;2023-07-16T15:23:29;8.98;;;5.72;;
49548;SDS011;35450;44.518;7.466;2023-07-16T15:26:33;14.95;;;6.07;;
49548;SDS011;35450;44.518;7.466;2023-07-16T15:29:37;6.38;;;5.65;;
49548;SDS011;35450;44.518;7.466;2023-07-16T15:32:41;12.52;;;6.40;;
49548;SDS011;35450;44.518;7.466;2023-07-16T15:35:45;15.25;;;6.18;;
49548;SDS011;35450;44.518;7.466;2023-07-16T15:38:49;12.77;;;7.00;;
49548;SDS011;35450;44.518;7.466;2023-07-16T15:41:53;12.88;;;6.18;;
49548;SDS011;35450;44.518;7.466;2023-07-16T15:44:57;12.05;;;5.78;;
49548;SDS011;35450;44.518;7.466;2023-07-16T15:48:01;11.88;;;6.22;;
49548;SDS011;35450;44.518;7.466;2023-07-16T15:51:05;14.65;;;5.88;;
49548;SDS011;35450;44.518;7.466;2023-07-16T15:54:09;15.50;;;5.60;;
49548;SDS011;35450;44.518;7.466;2023-07-16T15:57:13;8.45;;;5.55;;
49548;SDS011;35450;44.518;7.466;2023-07-16T16:00:17;12.00;;;5.95;;
49548;SDS011;35450;44.518;7.466;2023-07-16T16:03:23;15.10;;;5.60;;
49548;SDS011;35450;44.518;7.466;2023-07-16T16:06:26;8.93;;;5.85;;
49548;SDS011;35450;44.518;7.466;2023-07-16T16:09:30;7.30;;;5.72;;
49548;SDS011;35450;44.518;7.466;2023-07-16T16:12:34;20.05;;;6.43;;
49548;SDS011;35450;44.518;7.466;2023-07-16T16:15:38;7.85;;;5.40;;
49548;SDS011;35450;44.518;7.466;2023-07-16T16:18:42;14.48;;;5.82;;
49548;SDS011;35450;44.518;7.466;2023-07-16T16:21:46;17.85;;;6.15;;
49548;SDS011;35450;44.518;7.466;2023-07-16T16:24:50;15.32;;;5.95;;
49548;SDS011;35450;44.518;7.466;2023-07-16T16:27:54;16.38;;;6.55;;
49548;SDS011;35450;44.518;7.466;2023-07-16T16:30:58;9.80;;;5.75;;
49548;SDS011;35450;44.518;7.466;2023-07-16T16:34:02;11.57;;;6.28;;
49548;SDS011;35450;44.518;7.466;2023-07-16T16:37:06;11.30;;;5.82;;
49548;SDS011;35450;44.518;7.466;2023-07-16T16:40:10;22.77;;;7.32;;
49548;SDS011;35450;44.518;7.466;2023-07-16T16:43:15;11.55;;;5.72;;
49548;SDS011;35450;44.518;7.466;2023-07-16T16:46:19;14.90;;;9.35;;
49548;SDS011;35450;44.518;7.466;2023-07-16T16:49:23;12.02;;;8.70;;
49548;SDS011;35450;44.518;7.466;2023-07-16T16:52:27;15.13;;;6.53;;
49548;SDS011;35450;44.518;7.466;2023-07-16T16:55:31;14.23;;;5.93;;
49548;SDS011;35450;44.518;7.466;2023-07-16T16:58:35;16.10;;;6.45;;
49548;SDS011;35450;44.518;7.466;2023-07-16T17:01:39;13.13;;;5.75;;
49548;SDS011;35450;44.518;7.466;2023-07-16T17:04:43;14.45;;;5.63;;
49548;SDS011;35450;44.518;7.466;2023-07-16T17:07:47;13.18;;;6.32;;
49548;SDS011;35450;44.518;7.466;2023-07-16T17:10:54;10.68;;;5.85;;
49548;SDS011;35450;44.518;7.466;2023-07-16T17:13:59;14.55;;;6.20;;
49548;SDS011;35450;44.518;7.466;2023-07-16T17:17:04;13.40;;;5.82;;
49548;SDS011;35450;44.518;7.466;2023-07-16T17:20:08;14.73;;;6.88;;
49548;SDS011;35450;44.518;7.466;2023-07-16T17:23:13;12.70;;;5.95;;
49548;SDS011;35450;44.518;7.466;2023-07-16T17:26:17;13.18;;;6.32;;
49548;SDS011;35450;44.518;7.466;2023-07-16T17:29:22;8.75;;;5.50;;
49548;SDS011;35450;44.518;7.466;2023-07-16T17:32:26;9.10;;;5.38;;
49548;SDS011;35450;44.518;7.466;2023-07-16T17:35:30;17.15;;;6.25;;
49548;SDS011;35450;44.518;7.466;2023-07-16T17:38:34;13.57;;;6.32;;
49548;SDS011;35450;44.518;7.466;2023-07-16T17:41:38;24.15;;;6.82;;
49548;SDS011;35450;44.518;7.466;2023-07-16T17:44:42;10.95;;;5.65;;
49548;SDS011;35450;44.518;7.466;2023-07-16T17:47:51;12.98;;;6.45;;
49548;SDS011;35450;44.518;7.466;2023-07-16T17:50:55;13.38;;;6.55;;
49548;SDS011;35450;44.518;7.466;2023-07-16T17:53:59;15.05;;;5.72;;
49548;SDS011;35450;44.518;7.466;2023-07-16T17:57:03;14.43;;;5.82;;
49548;SDS011;35450;44.518;7.466;2023-07-16T18:00:08;11.10;;;5.47;;
49548;SDS011;35450;44.518;7.466;2023-07-16T18:03:12;10.05;;;6.38;;
49548;SDS011;35450;44.518;7.466;2023-07-16T18:06:16;17.08;;;6.70;;
49548;SDS011;35450;44.518;7.466;2023-07-16T18:09:20;9.15;;;5.55;;
49548;SDS011;35450;44.518;7.466;2023-07-16T18:12:24;12.63;;;6.25;;
49548;SDS011;35450;44.518;7.466;2023-07-16T18:15:28;12.32;;;6.10;;
49548;SDS011;35450;44.518;7.466;2023-07-16T18:18:32;9.52;;;6.20;;
49548;SDS011;35450;44.518;7.466;2023-07-16T18:21:36;9.98;;;5.85;;
49548;SDS011;35450;44.518;7.466;2023-07-16T18:24:40;12.20;;;5.88;;